Time;durP1;ratioP1;P1;durP2;ratioP2;P2;SDS_P1;SDS_P2;PMS_P1;PMS_P2;Temp;Humidity;BMP_temperature;BMP_pressure;BME280_temperature;BME280_humidity;BME280_pressure;Samples;Min_cycle;Max_cycle;Signal;HPM_P1;HPM_P2
2023/02/08 00:00:29;;;;;;;4.63;4.22;;;17.40;48.80;;;;;;5113651;28;20216;-56
2023/02/08 00:02:55;;;;;;;4.25;3.80;;;17.40;48.70;;;;;;5114084;28;20257;-56
2023/02/08 00:05:20;;;;;;;4.38;3.97;;;17.40;48.70;;;;;;5113100;28;20173;-57
2023/02/08 00:07:46;;;;;;;5.03;4.32;;;17.30;48.80;;;;;;5113929;28;20259;-58
2023/02/08 00:10:11;;;;;;;4.82;4.32;;;17.30;48.80;;;;;;5113812;28;20632;-50
2023/02/08 00:12:37;;;;;;;4.57;4.18;;;17.30;48.80;;;;;;5112762;28;20596;-57
2023/02/08 00:15:03;;;;;;;4.05;3.70;;;17.30;48.70;;;;;;5113929;28;20707;-51
2023/02/08 00:17:29;;;;;;;4.35;3.95;;;17.30;49.40;;;;;;5112651;28;20651;-54
2023/02/08 00:19:55;;;;;;;4.63;4.10;;;17.20;49.30;;;;;;5113544;28;20243;-52
2023/02/08 00:22:20;;;;;;;4.82;4.28;;;17.20;48.70;;;;;;5113275;28;20169;-54
2023/02/08 00:24:46;;;;;;;5.05;4.03;;;17.20;48.70;;;;;;5112822;28;20177;-51
2023/02/08 00:27:11;;;;;;;4.25;3.75;;;17.20;48.70;;;;;;5113827;28;20177;-53
2023/02/08 00:29:37;;;;;;;4.35;3.95;;;17.10;48.70;;;;;;5113375;28;20196;-52
2023/02/08 00:32:03;;;;;;;4.68;4.28;;;17.10;48.70;;;;;;5112854;28;20655;-55
2023/02/08 00:34:28;;;;;;;4.25;3.88;;;17.10;48.70;;;;;;5113432;28;20169;-57
2023/02/08 00:36:54;;;;;;;3.83;3.53;;;17.10;48.70;;;;;;5113540;28;20696;-56
2023/02/08 00:39:20;;;;;;;3.90;3.60;;;17.10;48.70;;;;;;5112398;28;20204;-56
2023/02/08 00:41:46;;;;;;;3.90;3.60;;;17.10;48.70;;;;;;5113409;28;20232;-56
2023/02/08 00:44:11;;;;;;;3.95;3.65;;;17.10;48.70;;;;;;5113610;28;20177;-56
2023/02/08 00:46:37;;;;;;;3.63;3.33;;;17.10;48.70;;;;;;5112575;28;20176;-57
2023/02/08 00:49:02;;;;;;;4.10;3.80;;;17.00;48.60;;;;;;5113536;28;20169;-56
2023/02/08 00:51:28;;;;;;;4.43;4.03;;;17.00;48.60;;;;;;5113199;28;20177;-54
2023/02/08 00:53:54;;;;;;;4.05;3.63;;;17.00;48.60;;;;;;5112760;28;20666;-56
2023/02/08 00:56:19;;;;;;;4.18;3.78;;;17.00;49.30;;;;;;5112907;28;20179;-54
2023/02/08 00:58:45;;;;;;;4.03;3.60;;;17.00;48.60;;;;;;5113379;28;20256;-53
2023/02/08 01:01:10;;;;;;;4.05;3.75;;;17.00;48.60;;;;;;5112318;28;20658;-54
2023/02/08 01:03:38;;;;;;;4.55;4.15;;;16.90;48.60;;;;;;5112037;28;20177;-57
2023/02/08 01:06:05;;;;;;;4.20;3.80;;;16.90;48.60;;;;;;5113310;28;20204;-57
2023/02/08 01:08:31;;;;;;;4.03;3.70;;;16.90;48.60;;;;;;5111925;28;20666;-55
2023/02/08 01:11:12;;;;;;;4.35;3.95;;;16.90;48.60;;;;;;5113147;28;20177;-53
2023/02/08 01:13:37;;;;;;;4.03;3.72;;;16.90;48.60;;;;;;5112886;28;20184;-57
2023/02/08 01:16:11;;;;;;;4.35;3.85;;;16.90;48.60;;;;;;5112855;28;20546;-54
2023/02/08 01:18:37;;;;;;;4.10;3.70;;;16.80;48.50;;;;;;5112693;28;20251;-55
2023/02/08 01:21:07;;;;;;;3.95;3.65;;;16.80;48.60;;;;;;5112332;28;20705;-54
2023/02/08 01:23:33;;;;;;;3.60;3.30;;;16.80;48.60;;;;;;5112695;28;20761;-55
2023/02/08 01:25:58;;;;;;;4.32;3.92;;;16.80;48.60;;;;;;5112995;28;20268;-54
2023/02/08 01:28:24;;;;;;;4.40;4.00;;;16.80;48.60;;;;;;5112356;28;20260;-56
2023/02/08 01:30:49;;;;;;;3.85;3.55;;;16.80;48.60;;;;;;5116857;28;20205;-55
2023/02/08 01:33:15;;;;;;;3.70;3.40;;;16.70;48.60;;;;;;5117006;28;20184;-52
2023/02/08 01:35:40;;;;;;;3.75;3.45;;;16.70;48.70;;;;;;5115961;28;20558;-52
2023/02/08 01:38:06;;;;;;;4.22;3.85;;;16.70;48.70;;;;;;5116725;28;20181;-50
2023/02/08 01:40:31;;;;;;;4.10;3.80;;;16.70;48.70;;;;;;5116574;28;20204;-55
2023/02/08 01:42:57;;;;;;;4.32;3.72;;;16.70;48.70;;;;;;5116160;28;20177;-54
2023/02/08 01:45:25;;;;;;;4.18;3.50;;;16.70;48.70;;;;;;5116342;28;20172;-53
2023/02/08 01:48:07;;;;;;;7.38;3.88;;;16.70;48.70;;;;;;5116695;28;20188;-52
2023/02/08 01:50:41;;;;;;;4.25;3.90;;;16.70;48.70;;;;;;5115556;28;20211;-54
2023/02/08 01:53:07;;;;;;;3.78;3.47;;;16.70;48.70;;;;;;5116638;28;20525;-55
2023/02/08 01:55:34;;;;;;;3.92;3.63;;;16.60;48.60;;;;;;5116172;28;20260;-51
2023/02/08 01:58:01;;;;;;;4.00;3.60;;;16.60;48.60;;;;;;5097769;28;20207;-50
2023/02/08 02:00:26;;;;;;;4.10;3.78;;;16.60;48.70;;;;;;5116204;28;20211;-54
2023/02/08 02:02:54;;;;;;;4.00;3.63;;;16.60;48.70;;;;;;5116013;28;20173;-57
2023/02/08 02:05:20;;;;;;;3.70;3.40;;;16.60;48.70;;;;;;5116191;28;20181;-56
2023/02/08 02:07:46;;;;;;;3.55;3.25;;;16.60;48.70;;;;;;5081224;28;20627;-57
2023/02/08 02:10:24;;;;;;;3.63;3.33;;;16.60;48.70;;;;;;5115481;28;20199;-55
2023/02/08 02:12:50;;;;;;;4.07;3.67;;;16.50;48.60;;;;;;5098154;28;20549;-56
2023/02/08 02:15:16;;;;;;;3.80;3.50;;;16.60;48.70;;;;;;5098026;28;20173;-54
2023/02/08 02:17:41;;;;;;;3.85;3.55;;;16.50;48.70;;;;;;5115273;28;20187;-56
2023/02/08 02:20:20;;;;;;;4.15;3.85;;;16.50;48.70;;;;;;5097652;28;20251;-51
2023/02/08 02:23:23;;;;;;;3.78;3.47;;;16.50;48.70;;;;;;5082041;28;20180;-54
2023/02/08 02:26:03;;;;;;;3.60;3.28;;;16.50;48.80;;;;;;5115070;28;20173;-54
2023/02/08 02:28:40;;;;;;;3.90;3.60;;;16.50;48.70;;;;;;5115819;28;20183;-55
2023/02/08 02:31:39;;;;;;;3.75;3.45;;;16.40;48.70;;;;;;5115240;28;20218;-56
2023/02/08 02:34:17;;;;;;;3.60;3.30;;;16.40;48.70;;;;;;5116038;28;20169;-54
2023/02/08 02:37:09;;;;;;;3.80;3.50;;;16.40;48.70;;;;;;5115696;28;20173;-54
2023/02/08 02:40:13;;;;;;;3.97;3.50;;;16.40;48.70;;;;;;5113477;28;20303;-55
2023/02/08 02:46:03;;;;;;;4.32;3.67;;;16.40;48.70;;;;;;5114706;28;20184;-54
2023/02/08 02:48:53;;;;;;;3.97;3.63;;;16.40;48.70;;;;;;5097141;28;20179;-54
2023/02/08 02:51:38;;;;;;;3.50;3.30;;;16.40;48.70;;;;;;5115425;28;20196;-52
2023/02/08 02:54:17;;;;;;;3.92;3.63;;;16.30;48.70;;;;;;5080868;28;20184;-53
2023/02/08 02:56:44;;;;;;;3.65;3.35;;;16.30;48.70;;;;;;5097148;28;20173;-52
2023/02/08 02:59:11;;;;;;;4.25;3.90;;;16.30;48.70;;;;;;5079734;28;20679;-56
2023/02/08 03:01:37;;;;;;;3.78;3.47;;;16.30;48.70;;;;;;5096932;28;20185;-55
2023/02/08 03:04:17;;;;;;;3.63;3.33;;;16.30;48.70;;;;;;5115072;28;20184;-56
2023/02/08 03:07:19;;;;;;;3.70;3.40;;;16.30;48.70;;;;;;5114532;28;20180;-56
2023/02/08 03:09:59;;;;;;;3.80;3.50;;;16.30;48.70;;;;;;5099711;28;20172;-55
2023/02/08 03:12:54;;;;;;;4.13;3.83;;;16.20;48.60;;;;;;5114700;28;20229;-56
2023/02/08 03:15:28;;;;;;;4.25;3.92;;;16.20;48.60;;;;;;5114074;28;20252;-51
2023/02/08 03:18:13;;;;;;;4.13;3.83;;;16.20;48.60;;;;;;5114914;28;20168;-56
2023/02/08 03:20:48;;;;;;;4.32;3.92;;;16.20;48.60;;;;;;5113958;28;20303;-54
2023/02/08 03:23:18;;;;;;;4.10;3.80;;;16.20;48.60;;;;;;5080675;28;20173;-53
2023/02/08 03:26:28;;;;;;;4.35;4.00;;;16.20;49.30;;;;;;5114850;28;20188;-51
2023/02/08 03:28:58;;;;;;;4.13;3.72;;;16.20;48.60;;;;;;5091712;28;20177;-55
2023/02/08 03:31:36;;;;;;;4.43;4.03;;;16.20;48.60;;;;;;5079568;28;20185;-52
2023/02/08 03:34:06;;;;;;;3.80;3.50;;;16.10;48.60;;;;;;5114695;28;20180;-54
2023/02/08 03:36:46;;;;;;;4.10;3.80;;;16.10;48.60;;;;;;5113508;28;20183;-56
2023/02/08 03:39:14;;;;;;;4.38;4.03;;;16.10;48.60;;;;;;5114536;28;20200;-52
2023/02/08 03:41:40;;;;;;;4.35;4.05;;;16.10;48.60;;;;;;5095468;28;20177;-55
2023/02/08 03:44:15;;;;;;;3.75;3.45;;;16.10;48.60;;;;;;5096458;28;20180;-53
2023/02/08 03:46:42;;;;;;;4.95;4.13;;;16.10;48.60;;;;;;5114099;28;20183;-56
2023/02/08 03:49:12;;;;;;;4.05;3.75;;;16.10;48.60;;;;;;5095653;28;20192;-50
2023/02/08 03:51:38;;;;;;;3.92;3.63;;;16.10;48.60;;;;;;5114028;28;20181;-51
2023/02/08 03:54:11;;;;;;;4.35;4.05;;;16.10;48.60;;;;;;5114257;28;20180;-51
2023/02/08 03:56:43;;;;;;;4.38;3.97;;;16.00;48.60;;;;;;5078939;28;20230;-50
2023/02/08 03:59:12;;;;;;;4.15;3.78;;;16.00;48.60;;;;;;5114114;28;20341;-53
2023/02/08 04:01:47;;;;;;;4.57;4.20;;;16.00;49.30;;;;;;5078872;28;20587;-50
2023/02/08 04:04:13;;;;;;;4.82;4.40;;;16.00;48.60;;;;;;5078729;28;20177;-50
2023/02/08 04:06:39;;;;;;;4.18;3.78;;;16.00;48.60;;;;;;5078840;28;20180;-56
2023/02/08 04:09:04;;;;;;;5.03;4.18;;;16.00;48.60;;;;;;5114048;28;20173;-53
2023/02/08 04:11:30;;;;;;;4.45;4.13;;;16.00;48.70;;;;;;5112866;28;20538;-52
2023/02/08 04:13:55;;;;;;;4.50;4.10;;;16.00;48.70;;;;;;5113719;28;20658;-52
2023/02/08 04:16:21;;;;;;;4.70;4.30;;;16.00;48.60;;;;;;5113417;28;20173;-51
2023/02/08 04:18:46;;;;;;;4.22;3.83;;;16.00;48.70;;;;;;5112745;28;20769;-49
2023/02/08 04:21:12;;;;;;;4.78;4.38;;;15.90;48.60;;;;;;5113828;28;20200;-53
2023/02/08 04:23:37;;;;;;;4.60;4.20;;;15.90;48.70;;;;;;5112757;28;20204;-52
2023/02/08 04:26:03;;;;;;;4.57;4.18;;;15.90;48.70;;;;;;5113798;28;20196;-53
2023/02/08 04:28:29;;;;;;;4.82;4.32;;;15.90;48.70;;;;;;5113374;28;20169;-52
2023/02/08 04:30:55;;;;;;;4.93;4.53;;;15.90;48.70;;;;;;5112872;28;20202;-53
2023/02/08 04:33:21;;;;;;;4.43;4.03;;;15.90;48.70;;;;;;5113288;28;20576;-53
2023/02/08 04:35:46;;;;;;;5.60;4.57;;;15.90;48.70;;;;;;5113735;28;20204;-55
2023/02/08 04:38:12;;;;;;;4.22;3.83;;;15.90;48.70;;;;;;5113054;28;20177;-55
2023/02/08 04:40:37;;;;;;;4.90;4.50;;;15.80;48.60;;;;;;5113289;28;20212;-55
2023/02/08 04:43:03;;;;;;;4.88;4.38;;;15.80;49.30;;;;;;5113436;28;20188;-54
2023/02/08 04:45:30;;;;;;;4.78;4.38;;;15.80;48.60;;;;;;5112316;28;20882;-53
2023/02/08 04:47:56;;;;;;;4.68;4.28;;;15.80;48.60;;;;;;5113239;28;20655;-56
2023/02/08 04:50:22;;;;;;;4.75;4.35;;;15.80;48.60;;;;;;5113121;28;20211;-52
2023/02/08 04:52:47;;;;;;;5.00;4.60;;;15.80;48.70;;;;;;5112676;28;20169;-54
2023/02/08 04:55:13;;;;;;;5.00;4.53;;;15.80;48.60;;;;;;5113389;28;20179;-52
2023/02/08 04:57:38;;;;;;;4.65;4.20;;;15.70;48.60;;;;;;5113079;28;20169;-53
2023/02/08 05:00:05;;;;;;;4.90;4.50;;;15.70;48.60;;;;;;5112438;28;20209;-54
2023/02/08 05:02:30;;;;;;;5.68;5.00;;;15.70;48.70;;;;;;5113136;28;20177;-55
2023/02/08 05:04:56;;;;;;;4.65;4.22;;;15.70;48.70;;;;;;5116348;28;20539;-54
2023/02/08 05:07:21;;;;;;;5.15;4.65;;;15.70;48.60;;;;;;5116392;28;20654;-56
2023/02/08 05:09:47;;;;;;;4.88;4.47;;;15.70;48.60;;;;;;5117434;28;20196;-52
2023/02/08 05:12:12;;;;;;;5.72;5.22;;;15.70;48.70;;;;;;5117275;28;20169;-56
2023/02/08 05:14:38;;;;;;;4.95;4.53;;;15.70;48.60;;;;;;5116171;28;20168;-51
2023/02/08 05:17:03;;;;;;;5.63;5.13;;;15.70;48.80;;;;;;5117133;28;20712;-56
2023/02/08 05:19:29;;;;;;;5.95;5.35;;;15.70;48.60;;;;;;5116793;28;20273;-54
2023/02/08 05:21:55;;;;;;;5.43;4.93;;;15.70;48.60;;;;;;5116427;28;20182;-56
2023/02/08 05:24:21;;;;;;;5.40;4.90;;;15.60;48.60;;;;;;5117083;28;20173;-56
2023/02/08 05:26:46;;;;;;;4.57;4.18;;;15.60;48.60;;;;;;5098896;28;20311;-56
2023/02/08 05:29:12;;;;;;;5.32;4.82;;;15.60;48.60;;;;;;5116434;28;20260;-54
2023/02/08 05:31:37;;;;;;;5.47;4.97;;;15.60;48.60;;;;;;5116632;28;20526;-56
2023/02/08 05:34:03;;;;;;;5.43;4.93;;;15.60;48.60;;;;;;5116277;28;20719;-55
2023/02/08 05:36:28;;;;;;;5.57;5.07;;;15.60;48.60;;;;;;5116596;28;20174;-56
2023/02/08 05:38:54;;;;;;;5.80;5.05;;;15.60;48.70;;;;;;5116843;28;20635;-56
2023/02/08 05:41:20;;;;;;;5.00;4.50;;;15.50;48.60;;;;;;5115752;28;20180;-57
2023/02/08 05:43:45;;;;;;;5.03;4.55;;;15.50;48.60;;;;;;5116910;28;20632;-55
2023/02/08 05:46:11;;;;;;;5.40;5.00;;;15.50;48.60;;;;;;5116853;28;20177;-56
2023/02/08 05:48:36;;;;;;;5.40;4.90;;;15.50;48.60;;;;;;5115821;28;20598;-55
2023/02/08 05:51:02;;;;;;;5.05;4.55;;;15.50;48.60;;;;;;5116562;28;20173;-51
2023/02/08 05:53:28;;;;;;;5.00;4.53;;;15.50;48.60;;;;;;5116273;28;20203;-56
2023/02/08 05:55:55;;;;;;;5.53;5.03;;;15.50;48.60;;;;;;5115659;28;20169;-53
2023/02/08 05:58:20;;;;;;;4.97;4.57;;;15.50;48.60;;;;;;5116036;28;20636;-51
2023/02/08 06:00:46;;;;;;;5.65;4.93;;;15.50;48.60;;;;;;5116386;28;20253;-56
2023/02/08 06:03:11;;;;;;;4.97;4.47;;;15.50;48.70;;;;;;5115837;28;20632;-56
2023/02/08 06:05:37;;;;;;;5.25;4.75;;;15.50;48.60;;;;;;5116245;28;20528;-57
2023/02/08 06:08:03;;;;;;;5.07;4.60;;;15.50;48.70;;;;;;5116273;28;20185;-54
2023/02/08 06:10:29;;;;;;;5.30;4.80;;;15.40;48.60;;;;;;5115232;28;20177;-51
2023/02/08 06:12:54;;;;;;;5.28;4.80;;;15.40;48.60;;;;;;5116668;28;20748;-55
2023/02/08 06:15:20;;;;;;;5.18;4.78;;;15.40;48.60;;;;;;5115637;28;20703;-54
2023/02/08 06:17:45;;;;;;;5.05;4.65;;;15.40;48.60;;;;;;5115278;28;20169;-56
2023/02/08 06:20:11;;;;;;;4.90;4.50;;;15.40;48.60;;;;;;5115743;28;20221;-55
2023/02/08 06:22:37;;;;;;;5.53;5.07;;;15.40;48.60;;;;;;5115920;28;20180;-55
2023/02/08 06:25:02;;;;;;;5.60;5.10;;;15.40;48.60;;;;;;5115235;28;20658;-56
2023/02/08 06:27:28;;;;;;;5.55;5.05;;;15.40;48.60;;;;;;5115510;28;20201;-55
2023/02/08 06:29:53;;;;;;;5.97;5.43;;;15.40;48.60;;;;;;5116023;28;20190;-55
2023/02/08 06:32:19;;;;;;;5.13;4.63;;;15.30;48.60;;;;;;5115060;28;20234;-52
2023/02/08 06:34:44;;;;;;;5.82;5.22;;;15.40;48.70;;;;;;5115883;28;20557;-55
2023/02/08 06:37:10;;;;;;;5.72;5.22;;;15.40;48.60;;;;;;5115751;28;20635;-54
2023/02/08 06:39:35;;;;;;;5.22;4.72;;;15.50;48.60;;;;;;5114932;28;20593;-51
2023/02/08 06:42:01;;;;;;;5.50;5.00;;;15.50;48.50;;;;;;5115579;28;20569;-56
2023/02/08 06:44:26;;;;;;;5.43;4.95;;;15.50;48.50;;;;;;5114663;28;20627;-49
2023/02/08 06:46:52;;;;;;;5.57;5.03;;;15.50;48.40;;;;;;5115692;28;20691;-51
2023/02/08 06:49:17;;;;;;;5.82;5.32;;;15.50;48.40;;;;;;5115278;28;20196;-54
2023/02/08 06:51:43;;;;;;;5.72;5.20;;;15.50;48.40;;;;;;5114847;28;20173;-52
2023/02/08 06:54:09;;;;;;;5.88;5.38;;;15.50;48.40;;;;;;5115491;28;20161;-55
2023/02/08 06:56:34;;;;;;;6.05;5.45;;;15.50;48.40;;;;;;5115072;28;20302;-55
2023/02/08 06:59:00;;;;;;;5.93;5.35;;;15.40;48.40;;;;;;5114741;28;20176;-52
2023/02/08 07:01:25;;;;;;;6.03;5.43;;;15.40;48.40;;;;;;5114977;28;20177;-55
2023/02/08 07:03:51;;;;;;;5.53;5.03;;;15.40;48.40;;;;;;5115191;28;20188;-56
2023/02/08 07:06:18;;;;;;;5.55;5.05;;;15.50;48.50;;;;;;5114169;28;20706;-57
2023/02/08 07:08:43;;;;;;;5.28;4.88;;;15.60;48.50;;;;;;5115088;28;20177;-54
2023/02/08 07:11:11;;;;;;;5.63;5.13;;;15.70;48.50;;;;;;5114861;28;20256;-54
2023/02/08 07:13:37;;;;;;;6.13;5.10;;;15.80;48.30;;;;;;5114124;28;20177;-55
2023/02/08 07:16:03;;;;;;;5.25;4.80;;;16.00;47.90;;;;;;5115042;28;20177;-55
2023/02/08 07:18:29;;;;;;;4.88;4.47;;;16.30;47.70;;;;;;5114411;28;20232;-51
2023/02/08 07:20:55;;;;;;;4.88;4.45;;;16.50;47.40;;;;;;5114132;28;20213;-55
2023/02/08 07:23:20;;;;;;;4.90;4.47;;;16.70;47.40;;;;;;5114440;28;20173;-52
2023/02/08 07:25:57;;;;;;;4.90;4.50;;;16.90;47.00;;;;;;5114616;28;20183;-53
2023/02/08 07:28:23;;;;;;;4.95;4.45;;;17.10;46.60;;;;;;5113629;28;20215;-54
2023/02/08 07:30:48;;;;;;;4.93;4.35;;;17.30;46.40;;;;;;5114593;28;20178;-55
2023/02/08 07:33:14;;;;;;;4.95;4.45;;;17.30;46.30;;;;;;5114806;28;20219;-54
2023/02/08 07:35:39;;;;;;;4.78;4.38;;;17.20;46.20;;;;;;5113423;28;20643;-51
2023/02/08 07:38:05;;;;;;;4.88;4.47;;;17.20;46.30;;;;;;5114491;28;20177;-54
2023/02/08 07:40:30;;;;;;;4.63;4.22;;;17.20;46.40;;;;;;5113492;28;20211;-57
2023/02/08 07:42:56;;;;;;;4.63;4.22;;;17.20;46.30;;;;;;5114580;28;20188;-57
2023/02/08 07:45:22;;;;;;;5.78;5.18;;;17.20;46.30;;;;;;5114314;28;20173;-53
2023/02/08 07:47:47;;;;;;;4.93;4.43;;;17.30;46.40;;;;;;5113629;28;20169;-55
2023/02/08 07:50:15;;;;;;;4.93;4.53;;;17.30;46.40;;;;;;5114369;28;20226;-54
2023/02/08 07:52:42;;;;;;;5.03;4.10;;;17.30;46.30;;;;;;5113821;28;20187;-49
2023/02/08 07:55:08;;;;;;;5.03;4.55;;;17.30;46.30;;;;;;5113494;28;20639;-49
2023/02/08 07:57:34;;;;;;;4.88;4.32;;;17.30;46.40;;;;;;5113802;28;20188;-56
2023/02/08 08:00:00;;;;;;;5.20;4.70;;;17.30;46.20;;;;;;5114040;28;20212;-52
2023/02/08 08:02:25;;;;;;;4.57;4.18;;;17.40;46.20;;;;;;5112998;28;20172;-60
2023/02/08 08:04:52;;;;;;;5.97;4.78;;;17.40;46.30;;;;;;5114006;28;20174;-72
2023/02/08 08:07:18;;;;;;;5.20;4.70;;;17.40;46.40;;;;;;5113880;28;20523;-72
2023/02/08 08:09:44;;;;;;;5.88;4.57;;;17.30;46.60;;;;;;5113016;28;20188;-71
2023/02/08 08:12:09;;;;;;;5.90;5.03;;;17.30;46.70;;;;;;5112695;28;20627;-72
2023/02/08 08:14:35;;;;;;;5.57;5.05;;;17.40;46.70;;;;;;5113218;28;20511;-71
2023/02/08 08:17:00;;;;;;;5.15;4.70;;;17.40;46.70;;;;;;5113222;28;20588;-74
2023/02/08 08:19:26;;;;;;;6.00;4.88;;;17.40;46.70;;;;;;5113221;28;20586;-63
2023/02/08 08:21:51;;;;;;;5.47;4.47;;;17.40;46.70;;;;;;5113844;28;20633;-65
2023/02/08 08:24:17;;;;;;;4.97;4.47;;;17.40;46.70;;;;;;5112529;28;20169;-71
2023/02/08 08:26:42;;;;;;;5.55;4.65;;;17.50;46.70;;;;;;5113978;28;20212;-72
2023/02/08 08:29:08;;;;;;;5.20;4.72;;;17.60;46.60;;;;;;5113697;28;20161;-64
2023/02/08 08:31:33;;;;;;;5.55;4.72;;;17.50;46.50;;;;;;5112779;28;20180;-64
2023/02/08 08:33:59;;;;;;;5.30;4.47;;;17.50;46.50;;;;;;5113542;28;20173;-69
2023/02/08 08:36:24;;;;;;;6.25;4.95;;;17.60;46.50;;;;;;5113514;28;20181;-69
2023/02/08 08:38:50;;;;;;;5.03;4.53;;;17.60;46.40;;;;;;5111503;28;20250;-65
2023/02/08 08:41:16;;;;;;;5.13;4.63;;;17.80;46.40;;;;;;5113655;28;20223;-65
2023/02/08 08:43:42;;;;;;;5.95;4.72;;;17.70;46.40;;;;;;5113601;28;20180;-64
2023/02/08 08:46:08;;;;;;;6.15;4.60;;;17.70;46.50;;;;;;5112764;28;20169;-63
2023/02/08 08:48:34;;;;;;;5.60;5.03;;;17.60;46.60;;;;;;5113176;28;20222;-66
2023/02/08 08:51:00;;;;;;;8.00;4.70;;;17.50;46.80;;;;;;5112611;28;20173;-64
2023/02/08 08:53:25;;;;;;;5.25;4.65;;;17.50;46.90;;;;;;5113033;28;20598;-66
2023/02/08 08:55:51;;;;;;;5.53;4.85;;;17.40;47.00;;;;;;5111506;28;20173;-66
2023/02/08 08:58:17;;;;;;;5.15;4.57;;;17.40;47.10;;;;;;5111659;28;20172;-66
2023/02/08 09:00:42;;;;;;;7.45;4.78;;;17.40;47.10;;;;;;5112516;28;20578;-66
2023/02/08 09:03:08;;;;;;;5.15;4.60;;;17.40;47.00;;;;;;5113247;28;20654;-66
2023/02/08 09:05:34;;;;;;;4.78;4.35;;;17.40;46.90;;;;;;5112111;28;20663;-66
2023/02/08 09:08:00;;;;;;;4.85;4.40;;;17.40;46.90;;;;;;5113073;28;20647;-67
2023/02/08 09:10:25;;;;;;;5.05;4.63;;;17.40;46.80;;;;;;5113002;28;20252;-67
2023/02/08 09:12:51;;;;;;;5.18;4.57;;;17.40;46.70;;;;;;5112337;28;20745;-67
2023/02/08 09:15:17;;;;;;;6.38;4.90;;;17.40;46.70;;;;;;5113093;28;20188;-66
2023/02/08 09:17:43;;;;;;;4.88;4.32;;;17.40;46.70;;;;;;5112554;28;20173;-75
2023/02/08 09:20:09;;;;;;;5.13;4.63;;;17.40;46.90;;;;;;5112022;28;20584;-68
2023/02/08 09:22:34;;;;;;;5.10;4.60;;;17.40;46.90;;;;;;5112481;28;20268;-68
2023/02/08 09:25:00;;;;;;;4.70;4.30;;;17.40;47.00;;;;;;5113155;28;20193;-68
2023/02/08 09:27:27;;;;;;;4.97;4.18;;;17.40;47.10;;;;;;5111940;28;20671;-68
2023/02/08 09:29:53;;;;;;;5.82;4.53;;;17.40;47.10;;;;;;5113005;28;20294;-68
2023/02/08 09:32:20;;;;;;;6.80;5.10;;;17.40;47.10;;;;;;5112949;28;20173;-68
2023/02/08 09:34:45;;;;;;;4.85;4.35;;;17.40;47.20;;;;;;5112179;28;20191;-68
2023/02/08 09:37:11;;;;;;;5.80;4.50;;;17.40;47.30;;;;;;5112874;28;20620;-68
2023/02/08 09:39:36;;;;;;;5.20;4.65;;;17.30;47.50;;;;;;5112488;28;20702;-67
2023/02/08 09:42:11;;;;;;;4.25;3.95;;;17.30;47.50;;;;;;5112003;28;20169;-68
2023/02/08 09:44:52;;;;;;;4.70;4.30;;;17.30;47.60;;;;;;5094842;28;20184;-67
2023/02/08 09:47:40;;;;;;;4.60;4.20;;;17.30;47.60;;;;;;5093769;28;20507;-68
2023/02/08 09:50:12;;;;;;;4.95;4.32;;;17.30;47.60;;;;;;5096335;28;20202;-68
2023/02/08 09:52:46;;;;;;;4.63;4.22;;;17.30;47.60;;;;;;5081552;28;20181;-68
2023/02/08 09:55:23;;;;;;;5.47;4.97;;;17.40;47.70;;;;;;5115988;28;20184;-68
2023/02/08 09:57:48;;;;;;;4.82;4.43;;;17.40;47.60;;;;;;5099136;28;20168;-67
2023/02/08 10:00:20;;;;;;;4.57;4.15;;;17.40;47.60;;;;;;5098522;28;20277;-68
2023/02/08 10:02:46;;;;;;;4.38;3.92;;;17.40;47.60;;;;;;5116040;28;20170;-68
2023/02/08 10:05:13;;;;;;;4.85;4.25;;;17.40;47.70;;;;;;5116430;28;20192;-68
2023/02/08 10:07:39;;;;;;;5.30;4.80;;;17.40;47.80;;;;;;5097907;28;20201;-69
2023/02/08 10:10:15;;;;;;;4.95;4.15;;;17.40;47.80;;;;;;5080669;28;20207;-68
2023/02/08 10:12:41;;;;;;;4.55;4.15;;;17.30;47.80;;;;;;5082632;28;20226;-68
2023/02/08 10:15:15;;;;;;;6.03;4.47;;;17.30;48.00;;;;;;5116464;28;20631;-67
2023/02/08 10:18:17;;;;;;;5.28;4.68;;;17.20;48.00;;;;;;5116032;28;20172;-67
2023/02/08 10:21:12;;;;;;;4.88;4.43;;;17.20;48.20;;;;;;5030638;28;20744;-67
2023/02/08 10:23:45;;;;;;;4.63;4.18;;;17.10;48.40;;;;;;5054991;28;20662;-67
2023/02/08 10:26:22;;;;;;;4.55;4.07;;;17.10;48.50;;;;;;5098026;28;20181;-68
2023/02/08 10:29:20;;;;;;;5.03;4.10;;;17.10;48.80;;;;;;5098829;28;20200;-67
2023/02/08 10:31:57;;;;;;;4.90;4.18;;;17.00;48.80;;;;;;5097882;28;20177;-67
2023/02/08 10:34:45;;;;;;;6.30;3.80;;;17.00;48.80;;;;;;5115552;28;20169;-67
2023/02/08 10:37:14;;;;;;;4.85;4.35;;;16.90;48.80;;;;;;5097926;28;20176;-67
2023/02/08 10:39:43;;;;;;;4.30;3.88;;;16.90;48.80;;;;;;5115596;28;20213;-67
2023/02/08 10:42:21;;;;;;;4.25;3.85;;;16.90;48.80;;;;;;5115839;28;20189;-67
2023/02/08 10:44:49;;;;;;;4.50;4.10;;;16.80;48.70;;;;;;5114942;28;20550;-67
2023/02/08 10:47:21;;;;;;;4.55;3.78;;;16.80;48.70;;;;;;5115423;28;20666;-67
2023/02/08 10:49:52;;;;;;;4.47;4.07;;;16.80;48.80;;;;;;5098041;28;20187;-67
2023/02/08 10:52:18;;;;;;;4.85;4.38;;;16.80;48.80;;;;;;5096483;28;20645;-69
2023/02/08 10:54:44;;;;;;;4.25;3.85;;;16.70;48.80;;;;;;5080336;28;20173;-67
2023/02/08 10:57:13;;;;;;;4.78;4.30;;;16.70;48.70;;;;;;5115526;28;20268;-67
2023/02/08 10:59:50;;;;;;;4.95;4.55;;;16.70;48.80;;;;;;5096096;28;20211;-67
2023/02/08 11:02:25;;;;;;;3.78;3.47;;;16.70;48.80;;;;;;5096532;28;20196;-68
2023/02/08 11:05:02;;;;;;;4.55;4.00;;;16.70;48.90;;;;;;5114617;28;20172;-68
2023/02/08 11:07:27;;;;;;;4.05;3.75;;;16.70;48.80;;;;;;5115085;28;20200;-68
2023/02/08 11:09:53;;;;;;;4.43;4.03;;;16.70;48.80;;;;;;5115297;28;20647;-67
2023/02/08 11:12:19;;;;;;;4.50;4.10;;;16.70;48.80;;;;;;5114129;28;20507;-67
2023/02/08 11:14:50;;;;;;;4.90;4.45;;;16.70;48.80;;;;;;5080142;28;20203;-67
2023/02/08 11:17:27;;;;;;;6.63;4.13;;;16.70;48.80;;;;;;5096948;28;20181;-66
2023/02/08 11:19:52;;;;;;;4.20;3.80;;;16.70;48.80;;;;;;5079060;28;20229;-66
2023/02/08 11:22:19;;;;;;;4.53;3.50;;;16.70;48.80;;;;;;5079517;28;20169;-67
2023/02/08 11:24:49;;;;;;;4.72;4.32;;;16.70;49.00;;;;;;5096687;28;20211;-67
2023/02/08 11:27:28;;;;;;;5.72;4.53;;;16.70;48.90;;;;;;5080266;28;20177;-67
2023/02/08 11:30:12;;;;;;;4.18;3.85;;;16.70;48.90;;;;;;5114780;28;20700;-67
2023/02/08 11:32:41;;;;;;;4.40;3.78;;;16.80;48.80;;;;;;5113509;28;20630;-67
2023/02/08 11:35:20;;;;;;;4.28;3.92;;;16.80;48.80;;;;;;5097070;28;20169;-67
2023/02/08 11:37:55;;;;;;;3.95;3.65;;;16.80;49.40;;;;;;5114590;28;20252;-67
2023/02/08 11:40:28;;;;;;;3.60;3.30;;;16.90;48.70;;;;;;5095516;28;20271;-67
2023/02/08 11:42:54;;;;;;;3.80;3.40;;;16.90;48.50;;;;;;5096459;28;20197;-67
2023/02/08 11:45:30;;;;;;;3.55;3.25;;;16.90;48.20;;;;;;5114262;28;20299;-68
2023/02/08 11:47:56;;;;;;;4.22;3.83;;;17.00;48.40;;;;;;5096182;28;20212;-67
2023/02/08 11:50:35;;;;;;;3.97;3.58;;;17.00;48.20;;;;;;5096174;28;20203;-68
2023/02/08 11:53:28;;;;;;;3.85;3.55;;;17.00;48.20;;;;;;5096471;28;20176;-68
2023/02/08 11:56:05;;;;;;;3.70;3.40;;;17.00;48.40;;;;;;5098273;28;20180;-68
2023/02/08 11:58:31;;;;;;;3.75;3.35;;;17.00;48.40;;;;;;5113995;28;20183;-68
2023/02/08 12:01:04;;;;;;;3.70;3.28;;;17.10;48.20;;;;;;5095259;28;20205;-67
2023/02/08 12:03:41;;;;;;;3.60;3.30;;;17.10;48.40;;;;;;5113657;28;20184;-67
2023/02/08 12:06:28;;;;;;;3.95;3.58;;;17.10;48.10;;;;;;5096397;28;20196;-68
2023/02/08 12:09:25;;;;;;;3.42;3.17;;;17.20;48.00;;;;;;5113493;28;20169;-68
2023/02/08 12:12:16;;;;;;;4.53;4.07;;;17.20;48.00;;;;;;5098880;28;20173;-68
2023/02/08 12:14:56;;;;;;;4.20;3.55;;;17.20;48.00;;;;;;5096111;28;20264;-68
2023/02/08 12:17:32;;;;;;;4.13;3.63;;;17.20;48.60;;;;;;5095118;28;20188;-66
2023/02/08 12:20:35;;;;;;;5.05;3.88;;;17.20;48.00;;;;;;5096532;28;20235;-67
2023/02/08 12:23:12;;;;;;;3.33;3.03;;;17.20;47.90;;;;;;5113169;28;20196;-67
2023/02/08 12:26:14;;;;;;;3.42;3.13;;;17.20;48.00;;;;;;5095944;28;20617;-68
2023/02/08 12:28:51;;;;;;;3.67;3.20;;;17.20;48.10;;;;;;5096092;28;20177;-68
2023/02/08 12:31:55;;;;;;;3.65;3.20;;;17.20;48.00;;;;;;5113197;28;20187;-68
2023/02/08 12:34:47;;;;;;;5.15;3.53;;;17.20;48.00;;;;;;5074755;28;20269;-64
2023/02/08 12:43:20;;;;;;;5.93;3.85;;;17.20;48.00;;;;;;5112969;28;20210;-64
2023/02/08 12:45:53;;;;;;;5.57;3.28;;;17.20;48.00;;;;;;5113709;28;20217;-65
2023/02/08 12:48:51;;;;;;;4.80;3.35;;;17.20;48.00;;;;;;5078608;28;20179;-64
2023/02/08 12:51:23;;;;;;;5.75;3.30;;;17.20;48.00;;;;;;5079889;28;20182;-65
2023/02/08 12:53:54;;;;;;;4.65;3.00;;;17.20;47.90;;;;;;5095342;28;20169;-65
2023/02/08 12:56:24;;;;;;;4.80;3.20;;;17.20;48.00;;;;;;5095664;28;20520;-65
2023/02/08 12:58:51;;;;;;;4.90;3.30;;;17.20;47.90;;;;;;5095094;28;20257;-64
2023/02/08 13:01:17;;;;;;;4.97;3.50;;;17.20;47.90;;;;;;5094857;28;20208;-65
2023/02/08 13:03:52;;;;;;;4.35;3.22;;;17.20;47.70;;;;;;5095134;28;20189;-64
2023/02/08 13:06:21;;;;;;;7.50;3.30;;;17.20;47.70;;;;;;5078407;28;20651;-65
2023/02/08 13:08:49;;;;;;;4.65;3.05;;;17.20;47.70;;;;;;5095410;28;20181;-65
2023/02/08 13:11:26;;;;;;;5.65;3.20;;;17.20;47.70;;;;;;5112462;28;20173;-65